Betty K Viii — E5U2577 — position and weather

sailwx.info

Track history (hours):
 
Tides and Currents Weather Stations Pressure Air Temp Water Temp Dewpoint Dewpoint Depression Visibility Wind Speed Wind Dir Waves Ship Positions

Betty K Viii

Last reported at 2018-Feb-21 01:06 UTC. Time now 2018-Feb-21 19:12 UTC.
Position N 25°49' W 079°31'.

Length 78 m; draft 3.8 m.

Type: Cargo ship. MMSI: 518630000.

Date/timePositionNaut miles runAvg speedWind from/ knotsBaromVisibWave heightAir tempDewpointWater temp
2018-Feb-21 01:06N 25°49' W 079°31'1 9.5
2018-Feb-21 00:58N 25°49' W 079°32'4 9.4
2018-Feb-21 00:30N 25°48' W 079°37'4 9.2
2018-Feb-21 00:00N 25°48' W 079°42'5 9.0
2018-Feb-20 23:30N 25°47' W 079°47'4 8.9
2018-Feb-20 23:00N 25°47' W 079°52'5 9.2
2018-Feb-20 22:30N 25°46' W 079°57'5 9.4
2018-Feb-20 22:00N 25°45' W 080°02'4 8.5
2018-Feb-20 21:30N 25°46' W 080°06'4 7.5
2018-Feb-20 21:01N 25°46' W 080°11'1 1.9
2018-Feb-20 20:31N 25°46' W 080°12'1 2.8
2018-Feb-20 19:58N 25°47' W 080°13'1 2.8
2018-Feb-20 19:29N 25°48' W 080°14'1 1.7
2018-Feb-20 18:56N 25°48' W 080°15'0 0.0
2018-Feb-20 18:29N 25°48' W 080°15'0 0.0
2018-Feb-20 17:59N 25°48' W 080°15'0 0.0
2018-Feb-20 17:29N 25°48' W 080°15'0 0.0
2018-Feb-20 16:59N 25°48' W 080°15'0 0.0
2018-Feb-20 16:26N 25°48' W 080°15'0 0.0
2018-Feb-20 15:58N 25°48' W 080°15'0 0.0
2018-Feb-20 15:28N 25°48' W 080°15'0 0.0
2018-Feb-20 14:58N 25°48' W 080°15'0 0.0
2018-Feb-20 14:28N 25°48' W 080°15'0 0.0
2018-Feb-20 13:58N 25°48' W 080°15'0 0.0
2018-Feb-20 13:28N 25°48' W 080°15'0 0.0
2018-Feb-20 12:58N 25°48' W 080°15'0 0.0
2018-Feb-20 12:28N 25°48' W 080°15'0 0.0
2018-Feb-20 11:58N 25°48' W 080°15'0 0.0
2018-Feb-20 11:28N 25°48' W 080°15'0 0.0
2018-Feb-20 10:58N 25°48' W 080°15'0 0.0
2018-Feb-20 10:28N 25°48' W 080°15'0 0.0
2018-Feb-20 09:58N 25°48' W 080°15'0 0.0
2018-Feb-20 09:28N 25°48' W 080°15'0 0.0
2018-Feb-20 08:58N 25°48' W 080°15'0 0.0
2018-Feb-20 08:28N 25°48' W 080°15'0 0.0
2018-Feb-20 07:58N 25°48' W 080°15'0 0.0
2018-Feb-20 07:28N 25°48' W 080°15'0 0.0
2018-Feb-20 06:58N 25°48' W 080°15'0 0.0
2018-Feb-20 06:28N 25°48' W 080°15'0 0.0
2018-Feb-20 05:58N 25°48' W 080°15'0 0.0
2018-Feb-20 05:28N 25°48' W 080°15'0 0.0
2018-Feb-20 04:58N 25°48' W 080°15'0 0.0
2018-Feb-20 04:28N 25°48' W 080°15'0 0.0
2018-Feb-20 03:58N 25°48' W 080°15'0 0.0
2018-Feb-20 03:25N 25°48' W 080°15'0 0.0
2018-Feb-20 02:58N 25°48' W 080°15'0 0.0
2018-Feb-20 02:28N 25°48' W 080°15'0 0.0
2018-Feb-20 01:55N 25°48' W 080°15'0 0.0
2018-Feb-20 01:25N 25°48' W 080°15'0 0.0
2018-Feb-20 00:55N 25°48' W 080°15'0 0.0
2018-Feb-20 00:28N 25°48' W 080°15'0 0.0
2018-Feb-19 23:58N 25°48' W 080°15'0 0.0
2018-Feb-19 23:28N 25°48' W 080°15'0 0.0
2018-Feb-19 22:58N 25°48' W 080°15'0 0.0
2018-Feb-19 22:28N 25°48' W 080°15'0 0.0
2018-Feb-19 21:58N 25°48' W 080°15'0 0.0
2018-Feb-19 21:25N 25°48' W 080°15'0 0.0
2018-Feb-19 20:58N 25°48' W 080°15'0 0.0
2018-Feb-19 20:28N 25°48' W 080°15'0 0.0
2018-Feb-19 19:55N 25°48' W 080°15'0 0.0
2018-Feb-19 19:28N 25°48' W 080°15'0 0.0
2018-Feb-19 18:55N 25°48' W 080°15'0 0.0
2018-Feb-19 18:28N 25°48' W 080°15'0 0.0
2018-Feb-19 17:55N 25°48' W 080°15'0 0.0
2018-Feb-19 17:28N 25°48' W 080°15'0 0.0
2018-Feb-19 16:58N 25°48' W 080°15'0 0.0
2018-Feb-19 16:28N 25°48' W 080°15'0 0.0
2018-Feb-19 15:58N 25°48' W 080°15'0 0.0
2018-Feb-19 15:28N 25°48' W 080°15'0 0.0
2018-Feb-19 14:58N 25°48' W 080°15'0 0.0
2018-Feb-19 14:28N 25°48' W 080°15'0 0.0
2018-Feb-19 13:58N 25°48' W 080°15'0 1.1
2018-Feb-19 13:30N 25°48' W 080°15'1 1.9
2018-Feb-19 13:00N 25°47' W 080°14'1 2.9
2018-Feb-19 12:30N 25°47' W 080°12'1 2.6
2018-Feb-19 12:00N 25°46' W 080°11'3 5.7
2018-Feb-19 11:30N 25°46' W 080°08'3 5.5
2018-Feb-19 11:00N 25°47' W 080°05'3 5.5
2018-Feb-19 10:30N 25°48' W 080°02'3 7.0
2018-Feb-19 10:00N 25°47' W 079°59'4 8.5
2018-Feb-19 09:30N 25°44' W 080°01'510.6
2018-Feb-19 09:00N 25°38' W 080°01'510.8
2018-Feb-19 08:30N 25°33' W 079°59'510.5
2018-Feb-19 08:00N 25°29' W 079°57'  
2018-Feb-14 01:01N 25°56' W 079°26'110.5
2018-Feb-14 00:53N 25°56' W 079°28'410.8
2018-Feb-14 00:30N 25°54' W 079°32'510.6
2018-Feb-14 00:00N 25°53' W 079°38'510.2
2018-Feb-13 23:29N 25°51' W 079°43'510.4
2018-Feb-13 23:01N 25°50' W 079°48'510.6
2018-Feb-13 22:30N 25°48' W 079°54'510.4
2018-Feb-13 22:00N 25°47' W 079°60'5 9.5
2018-Feb-13 21:31N 25°46' W 080°05'4 8.1
2018-Feb-13 21:01N 25°46' W 080°09'2 4.0
2018-Feb-13 20:30N 25°46' W 080°12'1 2.3
2018-Feb-13 20:00N 25°47' W 080°13'1 2.8
2018-Feb-13 19:30N 25°47' W 080°14'1 2.3
2018-Feb-13 19:00N 25°48' W 080°15'0 0.3
2018-Feb-13 18:28N 25°48' W 080°15'0 0.0
2018-Feb-13 17:58N 25°48' W 080°15'0 0.0
2018-Feb-13 17:25N 25°48' W 080°15'0 0.0
2018-Feb-13 16:55N 25°48' W 080°15'0 0.0
2018-Feb-13 16:28N 25°48' W 080°15'0 0.0
2018-Feb-13 15:58N 25°48' W 080°15'0 0.0
2018-Feb-13 15:25N 25°48' W 080°15'0 0.0
2018-Feb-13 14:58N 25°48' W 080°15'0 0.0
2018-Feb-13 14:28N 25°48' W 080°15'0 0.0
2018-Feb-13 13:58N 25°48' W 080°15'0 0.0
2018-Feb-13 13:28N 25°48' W 080°15'0 0.0
2018-Feb-13 12:58N 25°48' W 080°15'0 0.0
2018-Feb-13 12:28N 25°48' W 080°15'0 0.0
2018-Feb-13 11:58N 25°48' W 080°15'0 0.0
2018-Feb-13 11:25N 25°48' W 080°15'0 0.0
2018-Feb-13 10:55N 25°48' W 080°15'0 0.0
2018-Feb-13 10:28N 25°48' W 080°15'0 0.0
2018-Feb-13 09:58N 25°48' W 080°15'0 0.0
2018-Feb-13 09:28N 25°48' W 080°15'0 0.0
2018-Feb-13 08:55N 25°48' W 080°15'0 0.0
2018-Feb-13 08:28N 25°48' W 080°15'0 0.0
2018-Feb-13 07:58N 25°48' W 080°15'0 0.0
2018-Feb-13 07:28N 25°48' W 080°15'0 0.0
2018-Feb-13 06:58N 25°48' W 080°15'0 0.0
2018-Feb-13 06:28N 25°48' W 080°15'0 0.0
2018-Feb-13 05:58N 25°48' W 080°15'0 0.0
2018-Feb-13 05:28N 25°48' W 080°15'0 0.0
2018-Feb-13 04:58N 25°48' W 080°15'0 0.0
2018-Feb-13 04:28N 25°48' W 080°15'0 0.0
2018-Feb-13 03:58N 25°48' W 080°15'0 0.0
2018-Feb-13 03:28N 25°48' W 080°15'0 0.0
2018-Feb-13 02:58N 25°48' W 080°15'0 0.0
2018-Feb-13 02:28N 25°48' W 080°15'0 0.0
2018-Feb-13 01:58N 25°48' W 080°15'0 0.0
2018-Feb-13 01:28N 25°48' W 080°15'0 0.0
2018-Feb-13 00:58N 25°48' W 080°15'0 0.0
2018-Feb-13 00:28N 25°48' W 080°15'0 0.0
2018-Feb-12 23:58N 25°48' W 080°15'0 0.0
2018-Feb-12 23:28N 25°48' W 080°15'0 0.0
2018-Feb-12 23:01N 25°48' W 080°15'0 0.0
2018-Feb-12 22:31N 25°48' W 080°15'0 0.0
2018-Feb-12 22:00N 25°48' W 080°15'0 0.0
2018-Feb-12 21:30N 25°48' W 080°15'0 0.0
2018-Feb-12 21:00N 25°48' W 080°15'0 0.0
2018-Feb-12 20:30N 25°48' W 080°15'0 0.0
2018-Feb-12 20:00N 25°48' W 080°15'0 0.0
2018-Feb-12 19:30N 25°48' W 080°15'0 0.0
2018-Feb-12 19:00N 25°48' W 080°15'0 0.0
2018-Feb-12 18:30N 25°48' W 080°15'0 0.0
2018-Feb-12 18:00N 25°48' W 080°15'0 0.0
2018-Feb-12 17:30N 25°48' W 080°15'0 0.0
2018-Feb-12 17:00N 25°48' W 080°15'0 0.0
2018-Feb-12 16:31N 25°48' W 080°15'0 0.0
2018-Feb-12 16:00N 25°48' W 080°15'0 0.0
2018-Feb-12 15:31N 25°48' W 080°15'0 0.0
2018-Feb-12 15:00N 25°48' W 080°15'0 0.0
2018-Feb-12 14:31N 25°48' W 080°15'0 0.0
2018-Feb-12 14:00N 25°48' W 080°15'0 0.0
2018-Feb-12 13:30N 25°48' W 080°15'0 0.0
2018-Feb-12 13:00N 25°48' W 080°15'0 0.0
2018-Feb-12 12:30N 25°48' W 080°15'0 0.0
2018-Feb-12 12:00N 25°48' W 080°15'0 0.0
2018-Feb-12 11:30N 25°48' W 080°15'0 0.0
2018-Feb-12 11:01N 25°48' W 080°15'0 0.0
2018-Feb-12 10:30N 25°48' W 080°15'0 0.0
2018-Feb-12 10:01N 25°48' W 080°15'0 0.0
2018-Feb-12 09:30N 25°48' W 080°15'0 0.0
2018-Feb-12 09:01N 25°48' W 080°15'0 0.0
2018-Feb-12 08:31N 25°48' W 080°15'0 0.0
2018-Feb-12 08:00N 25°48' W 080°15'0 0.0
2018-Feb-12 07:30N 25°48' W 080°15'0 0.0
2018-Feb-12 07:01N 25°48' W 080°15'0 0.0
2018-Feb-12 06:30N 25°48' W 080°15'0 0.0
2018-Feb-12 06:00N 25°48' W 080°15'0 0.0
2018-Feb-12 05:30N 25°48' W 080°15'0 0.0
2018-Feb-12 05:00N 25°48' W 080°15'0 0.0
2018-Feb-12 04:30N 25°48' W 080°15'0 0.0
2018-Feb-12 04:00N 25°48' W 080°15'0 0.0
2018-Feb-12 03:31N 25°48' W 080°15'0 0.0
2018-Feb-12 03:00N 25°48' W 080°15'0 0.0
2018-Feb-12 02:30N 25°48' W 080°15'0 0.0
2018-Feb-12 02:01N 25°48' W 080°15'0 0.0
2018-Feb-12 01:30N 25°48' W 080°15'0 0.0
2018-Feb-12 01:00N 25°48' W 080°15'0 0.0
2018-Feb-12 00:31N 25°48' W 080°15'0 0.0
2018-Feb-12 00:00N 25°48' W 080°15'0 0.0
2018-Feb-11 23:30N 25°48' W 080°15'0 0.0
2018-Feb-11 23:01N 25°48' W 080°15'0 0.0
2018-Feb-11 22:31N 25°48' W 080°15'0 0.0
2018-Feb-11 22:00N 25°48' W 080°15'0 0.0
2018-Feb-11 21:31N 25°48' W 080°15'0 0.0
2018-Feb-11 21:00N 25°48' W 080°15'0 0.0
2018-Feb-11 20:30N 25°48' W 080°15'0 0.0
2018-Feb-11 20:00N 25°48' W 080°15'0 0.0
2018-Feb-11 19:30N 25°48' W 080°15'0 0.3
2018-Feb-11 19:01N 25°48' W 080°15'0 0.0
2018-Feb-11 18:31N 25°48' W 080°15'0 0.0
2018-Feb-11 18:00N 25°48' W 080°15'0 0.0
2018-Feb-11 17:31N 25°48' W 080°15'0 0.0
2018-Feb-11 17:00N 25°48' W 080°15'0 0.0
2018-Feb-11 16:30N 25°48' W 080°15'0 0.0
2018-Feb-11 16:00N 25°48' W 080°15'0 0.0
2018-Feb-11 15:30N 25°48' W 080°15'0 0.0
2018-Feb-11 15:00N 25°48' W 080°15'0 0.0
2018-Feb-11 14:30N 25°48' W 080°15'0 0.0
2018-Feb-11 14:00N 25°48' W 080°15'0 0.0
2018-Feb-11 13:31N 25°48' W 080°15'0 0.0
2018-Feb-11 13:00N 25°48' W 080°15'0 0.0
2018-Feb-11 12:30N 25°48' W 080°15'0 0.0
2018-Feb-11 12:00N 25°48' W 080°15'0 0.0
2018-Feb-11 11:31N 25°48' W 080°15'0 0.0
2018-Feb-11 11:00N 25°48' W 080°15'0 0.0
2018-Feb-11 10:30N 25°48' W 080°15'0 0.0
2018-Feb-11 10:01N 25°48' W 080°15'0 0.0
2018-Feb-11 09:31N 25°48' W 080°15'0 0.0
2018-Feb-11 09:00N 25°48' W 080°15'0 0.0
2018-Feb-11 08:30N 25°48' W 080°15'0 0.0
2018-Feb-11 08:01N 25°48' W 080°15'0 0.0
2018-Feb-11 07:30N 25°48' W 080°15'0 0.0
2018-Feb-11 07:00N 25°48' W 080°15'0 0.0
2018-Feb-11 06:30N 25°48' W 080°15'0 0.0
2018-Feb-11 06:00N 25°48' W 080°15'0 0.0
2018-Feb-11 05:31N 25°48' W 080°15'0 0.0
2018-Feb-11 05:00N 25°48' W 080°15'0 0.0
2018-Feb-11 04:31N 25°48' W 080°15'0 0.0
2018-Feb-11 04:00N 25°48' W 080°15'0 0.0
2018-Feb-11 03:30N 25°48' W 080°15'0 0.0
2018-Feb-11 03:00N 25°48' W 080°15'0 0.0
2018-Feb-11 02:30N 25°48' W 080°15'0 0.0
2018-Feb-11 02:00N 25°48' W 080°15'0 0.0
2018-Feb-11 01:30N 25°48' W 080°15'  
Track history (hours):
 
Tides and Currents Weather Stations Pressure Air Temp Water Temp Dewpoint Dewpoint Depression Visibility Wind Speed Wind Dir Waves Ship Positions

Betty K Viii

Last reported at 2018-Feb-21 01:06 UTC. Time now 2018-Feb-21 19:12 UTC.
Position N 25°49' W 079°31'.

Length 78 m; draft 3.8 m.

Type: Cargo ship. MMSI: 518630000.

Date/timePositionNaut miles runAvg speedWind from/ knotsBaromVisibWave heightAir tempDewpointWater temp
2018-Feb-21 01:06N 25°49' W 079°31'1 9.5
2018-Feb-21 00:58N 25°49' W 079°32'4 9.4
2018-Feb-21 00:30N 25°48' W 079°37'4 9.2
2018-Feb-21 00:00N 25°48' W 079°42'5 9.0
2018-Feb-20 23:30N 25°47' W 079°47'4 8.9
2018-Feb-20 23:00N 25°47' W 079°52'5 9.2
2018-Feb-20 22:30N 25°46' W 079°57'5 9.4
2018-Feb-20 22:00N 25°45' W 080°02'4 8.5
2018-Feb-20 21:30N 25°46' W 080°06'4 7.5
2018-Feb-20 21:01N 25°46' W 080°11'1 1.9
2018-Feb-20 20:31N 25°46' W 080°12'1 2.8
2018-Feb-20 19:58N 25°47' W 080°13'1 2.8
2018-Feb-20 19:29N 25°48' W 080°14'1 1.7
2018-Feb-20 18:56N 25°48' W 080°15'0 0.0
2018-Feb-20 18:29N 25°48' W 080°15'0 0.0
2018-Feb-20 17:59N 25°48' W 080°15'0 0.0
2018-Feb-20 17:29N 25°48' W 080°15'0 0.0
2018-Feb-20 16:59N 25°48' W 080°15'0 0.0
2018-Feb-20 16:26N 25°48' W 080°15'0 0.0
2018-Feb-20 15:58N 25°48' W 080°15'0 0.0
2018-Feb-20 15:28N 25°48' W 080°15'0 0.0
2018-Feb-20 14:58N 25°48' W 080°15'0 0.0
2018-Feb-20 14:28N 25°48' W 080°15'0 0.0
2018-Feb-20 13:58N 25°48' W 080°15'0 0.0
2018-Feb-20 13:28N 25°48' W 080°15'0 0.0
2018-Feb-20 12:58N 25°48' W 080°15'0 0.0
2018-Feb-20 12:28N 25°48' W 080°15'0 0.0
2018-Feb-20 11:58N 25°48' W 080°15'0 0.0
2018-Feb-20 11:28N 25°48' W 080°15'0 0.0
2018-Feb-20 10:58N 25°48' W 080°15'0 0.0
2018-Feb-20 10:28N 25°48' W 080°15'0 0.0
2018-Feb-20 09:58N 25°48' W 080°15'0 0.0
2018-Feb-20 09:28N 25°48' W 080°15'0 0.0
2018-Feb-20 08:58N 25°48' W 080°15'0 0.0
2018-Feb-20 08:28N 25°48' W 080°15'0 0.0
2018-Feb-20 07:58N 25°48' W 080°15'0 0.0
2018-Feb-20 07:28N 25°48' W 080°15'0 0.0
2018-Feb-20 06:58N 25°48' W 080°15'0 0.0
2018-Feb-20 06:28N 25°48' W 080°15'0 0.0
2018-Feb-20 05:58N 25°48' W 080°15'0 0.0
2018-Feb-20 05:28N 25°48' W 080°15'0 0.0
2018-Feb-20 04:58N 25°48' W 080°15'0 0.0
2018-Feb-20 04:28N 25°48' W 080°15'0 0.0
2018-Feb-20 03:58N 25°48' W 080°15'0 0.0
2018-Feb-20 03:25N 25°48' W 080°15'0 0.0
2018-Feb-20 02:58N 25°48' W 080°15'0 0.0
2018-Feb-20 02:28N 25°48' W 080°15'0 0.0
2018-Feb-20 01:55N 25°48' W 080°15'0 0.0
2018-Feb-20 01:25N 25°48' W 080°15'0 0.0
2018-Feb-20 00:55N 25°48' W 080°15'0 0.0
2018-Feb-20 00:28N 25°48' W 080°15'0 0.0
2018-Feb-19 23:58N 25°48' W 080°15'0 0.0
2018-Feb-19 23:28N 25°48' W 080°15'0 0.0
2018-Feb-19 22:58N 25°48' W 080°15'0 0.0
2018-Feb-19 22:28N 25°48' W 080°15'0 0.0
2018-Feb-19 21:58N 25°48' W 080°15'0 0.0
2018-Feb-19 21:25N 25°48' W 080°15'0 0.0
2018-Feb-19 20:58N 25°48' W 080°15'0 0.0
2018-Feb-19 20:28N 25°48' W 080°15'0 0.0
2018-Feb-19 19:55N 25°48' W 080°15'0 0.0
2018-Feb-19 19:28N 25°48' W 080°15'0 0.0
2018-Feb-19 18:55N 25°48' W 080°15'0 0.0
2018-Feb-19 18:28N 25°48' W 080°15'0 0.0
2018-Feb-19 17:55N 25°48' W 080°15'0 0.0
2018-Feb-19 17:28N 25°48' W 080°15'0 0.0
2018-Feb-19 16:58N 25°48' W 080°15'0 0.0
2018-Feb-19 16:28N 25°48' W 080°15'0 0.0
2018-Feb-19 15:58N 25°48' W 080°15'0 0.0
2018-Feb-19 15:28N 25°48' W 080°15'0 0.0
2018-Feb-19 14:58N 25°48' W 080°15'0 0.0
2018-Feb-19 14:28N 25°48' W 080°15'0 0.0
2018-Feb-19 13:58N 25°48' W 080°15'0 1.1
2018-Feb-19 13:30N 25°48' W 080°15'1 1.9
2018-Feb-19 13:00N 25°47' W 080°14'1 2.9
2018-Feb-19 12:30N 25°47' W 080°12'1 2.6
2018-Feb-19 12:00N 25°46' W 080°11'3 5.7
2018-Feb-19 11:30N 25°46' W 080°08'3 5.5
2018-Feb-19 11:00N 25°47' W 080°05'3 5.5
2018-Feb-19 10:30N 25°48' W 080°02'3 7.0
2018-Feb-19 10:00N 25°47' W 079°59'4 8.5
2018-Feb-19 09:30N 25°44' W 080°01'510.6
2018-Feb-19 09:00N 25°38' W 080°01'510.8
2018-Feb-19 08:30N 25°33' W 079°59'510.5
2018-Feb-19 08:00N 25°29' W 079°57'  
2018-Feb-14 01:01N 25°56' W 079°26'110.5
2018-Feb-14 00:53N 25°56' W 079°28'410.8
2018-Feb-14 00:30N 25°54' W 079°32'510.6
2018-Feb-14 00:00N 25°53' W 079°38'510.2
2018-Feb-13 23:29N 25°51' W 079°43'510.4
2018-Feb-13 23:01N 25°50' W 079°48'510.6
2018-Feb-13 22:30N 25°48' W 079°54'510.4
2018-Feb-13 22:00N 25°47' W 079°60'5 9.5
2018-Feb-13 21:31N 25°46' W 080°05'4 8.1
2018-Feb-13 21:01N 25°46' W 080°09'2 4.0
2018-Feb-13 20:30N 25°46' W 080°12'1 2.3
2018-Feb-13 20:00N 25°47' W 080°13'1 2.8
2018-Feb-13 19:30N 25°47' W 080°14'1 2.3
2018-Feb-13 19:00N 25°48' W 080°15'0 0.3
2018-Feb-13 18:28N 25°48' W 080°15'0 0.0
2018-Feb-13 17:58N 25°48' W 080°15'0 0.0
2018-Feb-13 17:25N 25°48' W 080°15'0 0.0
2018-Feb-13 16:55N 25°48' W 080°15'0 0.0
2018-Feb-13 16:28N 25°48' W 080°15'0 0.0
2018-Feb-13 15:58N 25°48' W 080°15'0 0.0
2018-Feb-13 15:25N 25°48' W 080°15'0 0.0
2018-Feb-13 14:58N 25°48' W 080°15'0 0.0
2018-Feb-13 14:28N 25°48' W 080°15'0 0.0
2018-Feb-13 13:58N 25°48' W 080°15'0 0.0
2018-Feb-13 13:28N 25°48' W 080°15'0 0.0
2018-Feb-13 12:58N 25°48' W 080°15'0 0.0
2018-Feb-13 12:28N 25°48' W 080°15'0 0.0
2018-Feb-13 11:58N 25°48' W 080°15'0 0.0
2018-Feb-13 11:25N 25°48' W 080°15'0 0.0
2018-Feb-13 10:55N 25°48' W 080°15'0 0.0
2018-Feb-13 10:28N 25°48' W 080°15'0 0.0
2018-Feb-13 09:58N 25°48' W 080°15'0 0.0
2018-Feb-13 09:28N 25°48' W 080°15'0 0.0
2018-Feb-13 08:55N 25°48' W 080°15'0 0.0
2018-Feb-13 08:28N 25°48' W 080°15'0 0.0
2018-Feb-13 07:58N 25°48' W 080°15'0 0.0
2018-Feb-13 07:28N 25°48' W 080°15'0 0.0
2018-Feb-13 06:58N 25°48' W 080°15'0 0.0
2018-Feb-13 06:28N 25°48' W 080°15'0 0.0
2018-Feb-13 05:58N 25°48' W 080°15'0 0.0
2018-Feb-13 05:28N 25°48' W 080°15'0 0.0
2018-Feb-13 04:58N 25°48' W 080°15'0 0.0
2018-Feb-13 04:28N 25°48' W 080°15'0 0.0
2018-Feb-13 03:58N 25°48' W 080°15'0 0.0
2018-Feb-13 03:28N 25°48' W 080°15'0 0.0
2018-Feb-13 02:58N 25°48' W 080°15'0 0.0
2018-Feb-13 02:28N 25°48' W 080°15'0 0.0
2018-Feb-13 01:58N 25°48' W 080°15'0 0.0
2018-Feb-13 01:28N 25°48' W 080°15'0 0.0
2018-Feb-13 00:58N 25°48' W 080°15'0 0.0
2018-Feb-13 00:28N 25°48' W 080°15'0 0.0
2018-Feb-12 23:58N 25°48' W 080°15'0 0.0
2018-Feb-12 23:28N 25°48' W 080°15'0 0.0
2018-Feb-12 23:01N 25°48' W 080°15'0 0.0
2018-Feb-12 22:31N 25°48' W 080°15'0 0.0
2018-Feb-12 22:00N 25°48' W 080°15'0 0.0
2018-Feb-12 21:30N 25°48' W 080°15'0 0.0
2018-Feb-12 21:00N 25°48' W 080°15'0 0.0
2018-Feb-12 20:30N 25°48' W 080°15'0 0.0
2018-Feb-12 20:00N 25°48' W 080°15'0 0.0
2018-Feb-12 19:30N 25°48' W 080°15'0 0.0
2018-Feb-12 19:00N 25°48' W 080°15'0 0.0
2018-Feb-12 18:30N 25°48' W 080°15'0 0.0
2018-Feb-12 18:00N 25°48' W 080°15'0 0.0
2018-Feb-12 17:30N 25°48' W 080°15'0 0.0
2018-Feb-12 17:00N 25°48' W 080°15'0 0.0
2018-Feb-12 16:31N 25°48' W 080°15'0 0.0
2018-Feb-12 16:00N 25°48' W 080°15'0 0.0
2018-Feb-12 15:31N 25°48' W 080°15'0 0.0
2018-Feb-12 15:00N 25°48' W 080°15'0 0.0
2018-Feb-12 14:31N 25°48' W 080°15'0 0.0
2018-Feb-12 14:00N 25°48' W 080°15'0 0.0
2018-Feb-12 13:30N 25°48' W 080°15'0 0.0
2018-Feb-12 13:00N 25°48' W 080°15'0 0.0
2018-Feb-12 12:30N 25°48' W 080°15'0 0.0
2018-Feb-12 12:00N 25°48' W 080°15'0 0.0
2018-Feb-12 11:30N 25°48' W 080°15'0 0.0
2018-Feb-12 11:01N 25°48' W 080°15'0 0.0
2018-Feb-12 10:30N 25°48' W 080°15'0 0.0
2018-Feb-12 10:01N 25°48' W 080°15'0 0.0
2018-Feb-12 09:30N 25°48' W 080°15'0 0.0
2018-Feb-12 09:01N 25°48' W 080°15'0 0.0
2018-Feb-12 08:31N 25°48' W 080°15'0 0.0
2018-Feb-12 08:00N 25°48' W 080°15'0 0.0
2018-Feb-12 07:30N 25°48' W 080°15'0 0.0
2018-Feb-12 07:01N 25°48' W 080°15'0 0.0
2018-Feb-12 06:30N 25°48' W 080°15'0 0.0
2018-Feb-12 06:00N 25°48' W 080°15'0 0.0
2018-Feb-12 05:30N 25°48' W 080°15'0 0.0
2018-Feb-12 05:00N 25°48' W 080°15'0 0.0
2018-Feb-12 04:30N 25°48' W 080°15'0 0.0
2018-Feb-12 04:00N 25°48' W 080°15'0 0.0
2018-Feb-12 03:31N 25°48' W 080°15'0 0.0
2018-Feb-12 03:00N 25°48' W 080°15'0 0.0
2018-Feb-12 02:30N 25°48' W 080°15'0 0.0
2018-Feb-12 02:01N 25°48' W 080°15'0 0.0
2018-Feb-12 01:30N 25°48' W 080°15'0 0.0
2018-Feb-12 01:00N 25°48' W 080°15'0 0.0
2018-Feb-12 00:31N 25°48' W 080°15'0 0.0
2018-Feb-12 00:00N 25°48' W 080°15'0 0.0
2018-Feb-11 23:30N 25°48' W 080°15'0 0.0
2018-Feb-11 23:01N 25°48' W 080°15'0 0.0
2018-Feb-11 22:31N 25°48' W 080°15'0 0.0
2018-Feb-11 22:00N 25°48' W 080°15'0 0.0
2018-Feb-11 21:31N 25°48' W 080°15'0 0.0
2018-Feb-11 21:00N 25°48' W 080°15'0 0.0
2018-Feb-11 20:30N 25°48' W 080°15'0 0.0
2018-Feb-11 20:00N 25°48' W 080°15'0 0.0
2018-Feb-11 19:30N 25°48' W 080°15'0 0.3
2018-Feb-11 19:01N 25°48' W 080°15'0 0.0
2018-Feb-11 18:31N 25°48' W 080°15'0 0.0
2018-Feb-11 18:00N 25°48' W 080°15'0 0.0
2018-Feb-11 17:31N 25°48' W 080°15'0 0.0
2018-Feb-11 17:00N 25°48' W 080°15'0 0.0
2018-Feb-11 16:30N 25°48' W 080°15'0 0.0
2018-Feb-11 16:00N 25°48' W 080°15'0 0.0
2018-Feb-11 15:30N 25°48' W 080°15'0 0.0
2018-Feb-11 15:00N 25°48' W 080°15'0 0.0
2018-Feb-11 14:30N 25°48' W 080°15'0 0.0
2018-Feb-11 14:00N 25°48' W 080°15'0 0.0
2018-Feb-11 13:31N 25°48' W 080°15'0 0.0
2018-Feb-11 13:00N 25°48' W 080°15'0 0.0
2018-Feb-11 12:30N 25°48' W 080°15'0 0.0
2018-Feb-11 12:00N 25°48' W 080°15'0 0.0
2018-Feb-11 11:31N 25°48' W 080°15'0 0.0
2018-Feb-11 11:00N 25°48' W 080°15'0 0.0
2018-Feb-11 10:30N 25°48' W 080°15'0 0.0
2018-Feb-11 10:01N 25°48' W 080°15'0 0.0
2018-Feb-11 09:31N 25°48' W 080°15'0 0.0
2018-Feb-11 09:00N 25°48' W 080°15'0 0.0
2018-Feb-11 08:30N 25°48' W 080°15'0 0.0
2018-Feb-11 08:01N 25°48' W 080°15'0 0.0
2018-Feb-11 07:30N 25°48' W 080°15'0 0.0
2018-Feb-11 07:00N 25°48' W 080°15'0 0.0
2018-Feb-11 06:30N 25°48' W 080°15'0 0.0
2018-Feb-11 06:00N 25°48' W 080°15'0 0.0
2018-Feb-11 05:31N 25°48' W 080°15'0 0.0
2018-Feb-11 05:00N 25°48' W 080°15'0 0.0
2018-Feb-11 04:31N 25°48' W 080°15'0 0.0
2018-Feb-11 04:00N 25°48' W 080°15'0 0.0
2018-Feb-11 03:30N 25°48' W 080°15'0 0.0
2018-Feb-11 03:00N 25°48' W 080°15'0 0.0
2018-Feb-11 02:30N 25°48' W 080°15'0 0.0
2018-Feb-11 02:00N 25°48' W 080°15'0 0.0
2018-Feb-11 01:30N 25°48' W 080°15'  

Dump ship's entire track history